sensor_id;sensor_type;location;lat;lon;timestamp;pressure;altitude;pressure_sealevel;temperature;humidity
3444;BME280;1736;52.068;6.968;2022-11-14T00:01:37;101206.53;;;4.25;100.00
3444;BME280;1736;52.068;6.968;2022-11-14T00:04:04;101213.72;;;4.22;100.00
3444;BME280;1736;52.068;6.968;2022-11-14T00:06:31;101210.63;;;4.14;100.00
3444;BME280;1736;52.068;6.968;2022-11-14T00:08:59;101194.69;;;4.17;100.00
3444;BME280;1736;52.068;6.968;2022-11-14T00:11:25;101203.34;;;4.19;100.00
3444;BME280;1736;52.068;6.968;2022-11-14T00:13:52;101198.25;;;4.16;100.00
3444;BME280;1736;52.068;6.968;2022-11-14T00:16:18;101202.66;;;4.15;100.00
3444;BME280;1736;52.068;6.968;2022-11-14T00:18:45;101200.25;;;4.11;100.00
3444;BME280;1736;52.068;6.968;2022-11-14T00:21:11;101196.53;;;4.15;100.00
3444;BME280;1736;52.068;6.968;2022-11-14T00:23:38;101189.53;;;4.15;100.00
3444;BME280;1736;52.068;6.968;2022-11-14T00:26:06;101190.97;;;4.04;100.00
3444;BME280;1736;52.068;6.968;2022-11-14T00:28:32;101189.34;;;4.01;100.00
3444;BME280;1736;52.068;6.968;2022-11-14T00:30:59;101176.13;;;4.03;100.00
3444;BME280;1736;52.068;6.968;2022-11-14T00:33:25;101177.81;;;4.04;100.00
3444;BME280;1736;52.068;6.968;2022-11-14T00:35:53;101175.81;;;3.92;100.00
3444;BME280;1736;52.068;6.968;2022-11-14T00:38:20;101165.94;;;3.97;100.00
3444;BME280;1736;52.068;6.968;2022-11-14T00:40:47;101167.09;;;3.91;100.00
3444;BME280;1736;52.068;6.968;2022-11-14T00:43:15;101152.16;;;3.75;100.00
3444;BME280;1736;52.068;6.968;2022-11-14T00:45:43;101150.72;;;3.68;100.00
3444;BME280;1736;52.068;6.968;2022-11-14T00:48:10;101151.97;;;3.61;100.00
3444;BME280;1736;52.068;6.968;2022-11-14T00:50:36;101149.28;;;3.62;100.00
3444;BME280;1736;52.068;6.968;2022-11-14T00:53:03;101146.72;;;3.61;100.00
3444;BME280;1736;52.068;6.968;2022-11-14T00:55:30;101145.44;;;3.51;100.00
3444;BME280;1736;52.068;6.968;2022-11-14T00:57:56;101144.75;;;3.47;100.00
3444;BME280;1736;52.068;6.968;2022-11-14T01:00:24;101145.19;;;3.38;100.00
3444;BME280;1736;52.068;6.968;2022-11-14T01:02:51;101149.00;;;3.31;100.00
3444;BME280;1736;52.068;6.968;2022-11-14T01:05:21;101148.94;;;3.33;100.00
3444;BME280;1736;52.068;6.968;2022-11-14T01:07:47;101145.75;;;3.45;100.00
3444;BME280;1736;52.068;6.968;2022-11-14T01:10:14;101146.03;;;3.39;100.00
3444;BME280;1736;52.068;6.968;2022-11-14T01:12:41;101137.66;;;3.31;100.00
3444;BME280;1736;52.068;6.968;2022-11-14T01:15:08;101134.03;;;3.33;100.00
3444;BME280;1736;52.068;6.968;2022-11-14T01:17:36;101132.84;;;3.22;100.00
3444;BME280;1736;52.068;6.968;2022-11-14T01:20:03;101129.88;;;3.11;100.00
3444;BME280;1736;52.068;6.968;2022-11-14T01:22:30;101129.09;;;3.09;100.00
3444;BME280;1736;52.068;6.968;2022-11-14T01:24:56;101124.91;;;3.05;100.00
3444;BME280;1736;52.068;6.968;2022-11-14T01:27:23;101120.59;;;3.04;100.00
3444;BME280;1736;52.068;6.968;2022-11-14T01:29:50;101124.13;;;3.03;100.00
3444;BME280;1736;52.068;6.968;2022-11-14T01:32:16;101121.66;;;3.00;100.00
3444;BME280;1736;52.068;6.968;2022-11-14T01:34:45;101115.84;;;3.12;100.00
3444;BME280;1736;52.068;6.968;2022-11-14T01:37:11;101104.31;;;3.16;100.00
3444;BME280;1736;52.068;6.968;2022-11-14T01:39:38;101108.88;;;3.11;100.00
3444;BME280;1736;52.068;6.968;2022-11-14T01:42:05;101098.25;;;3.14;100.00
3444;BME280;1736;52.068;6.968;2022-11-14T01:44:44;101104.94;;;3.02;100.00
3444;BME280;1736;52.068;6.968;2022-11-14T01:47:11;101093.59;;;3.02;100.00
3444;BME280;1736;52.068;6.968;2022-11-14T01:49:46;101099.47;;;2.88;100.00
3444;BME280;1736;52.068;6.968;2022-11-14T01:52:16;101093.53;;;2.85;100.00
3444;BME280;1736;52.068;6.968;2022-11-14T01:54:45;101094.50;;;2.82;100.00
3444;BME280;1736;52.068;6.968;2022-11-14T01:57:15;101093.66;;;2.82;100.00
3444;BME280;1736;52.068;6.968;2022-11-14T01:59:47;101092.44;;;2.70;100.00
3444;BME280;1736;52.068;6.968;2022-11-14T02:02:17;101077.97;;;2.62;100.00
3444;BME280;1736;52.068;6.968;2022-11-14T02:04:47;101084.38;;;2.56;100.00
3444;BME280;1736;52.068;6.968;2022-11-14T02:07:16;101086.31;;;2.51;100.00
3444;BME280;1736;52.068;6.968;2022-11-14T02:09:45;101073.28;;;2.50;100.00
3444;BME280;1736;52.068;6.968;2022-11-14T02:12:15;101075.13;;;2.48;100.00
3444;BME280;1736;52.068;6.968;2022-11-14T02:14:44;101080.38;;;2.48;100.00
3444;BME280;1736;52.068;6.968;2022-11-14T02:17:13;101071.59;;;2.49;100.00
3444;BME280;1736;52.068;6.968;2022-11-14T02:19:42;101067.47;;;2.43;100.00
3444;BME280;1736;52.068;6.968;2022-11-14T02:22:11;101066.34;;;2.49;100.00
3444;BME280;1736;52.068;6.968;2022-11-14T02:24:37;101063.97;;;2.44;100.00
3444;BME280;1736;52.068;6.968;2022-11-14T02:27:05;101052.19;;;2.53;100.00
3444;BME280;1736;52.068;6.968;2022-11-14T02:29:33;101049.13;;;2.43;100.00
3444;BME280;1736;52.068;6.968;2022-11-14T02:32:00;101044.34;;;2.53;100.00
3444;BME280;1736;52.068;6.968;2022-11-14T02:34:27;101042.13;;;2.44;100.00
3444;BME280;1736;52.068;6.968;2022-11-14T02:36:54;101039.78;;;2.38;100.00
3444;BME280;1736;52.068;6.968;2022-11-14T02:39:23;101044.88;;;2.41;100.00
3444;BME280;1736;52.068;6.968;2022-11-14T02:41:50;101037.31;;;2.35;100.00
3444;BME280;1736;52.068;6.968;2022-11-14T02:44:17;101039.22;;;2.50;100.00
3444;BME280;1736;52.068;6.968;2022-11-14T02:46:44;101029.81;;;2.46;100.00
3444;BME280;1736;52.068;6.968;2022-11-14T02:49:10;101026.56;;;2.41;100.00
3444;BME280;1736;52.068;6.968;2022-11-14T02:51:37;101024.72;;;2.43;100.00
3444;BME280;1736;52.068;6.968;2022-11-14T02:54:04;101021.94;;;2.46;100.00
3444;BME280;1736;52.068;6.968;2022-11-14T02:56:32;101020.31;;;2.43;100.00
3444;BME280;1736;52.068;6.968;2022-11-14T02:58:59;101020.50;;;2.40;100.00
3444;BME280;1736;52.068;6.968;2022-11-14T03:01:25;101009.28;;;2.55;100.00
3444;BME280;1736;52.068;6.968;2022-11-14T03:03:52;101006.91;;;2.51;100.00
3444;BME280;1736;52.068;6.968;2022-11-14T03:06:18;101003.34;;;2.52;100.00
3444;BME280;1736;52.068;6.968;2022-11-14T03:08:45;100998.25;;;2.49;100.00
3444;BME280;1736;52.068;6.968;2022-11-14T03:11:11;100999.69;;;2.56;100.00
3444;BME280;1736;52.068;6.968;2022-11-14T03:13:39;100999.59;;;2.57;100.00
3444;BME280;1736;52.068;6.968;2022-11-14T03:16:07;100994.44;;;2.56;100.00
3444;BME280;1736;52.068;6.968;2022-11-14T03:18:34;100993.13;;;2.46;100.00
3444;BME280;1736;52.068;6.968;2022-11-14T03:21:04;100994.88;;;2.47;100.00
3444;BME280;1736;52.068;6.968;2022-11-14T03:23:31;100991.19;;;2.51;100.00
3444;BME280;1736;52.068;6.968;2022-11-14T03:25:59;100994.44;;;2.56;100.00
3444;BME280;1736;52.068;6.968;2022-11-14T03:28:25;100999.94;;;2.50;100.00
3444;BME280;1736;52.068;6.968;2022-11-14T03:30:53;100993.50;;;2.57;100.00
3444;BME280;1736;52.068;6.968;2022-11-14T03:33:20;100993.38;;;2.60;100.00
3444;BME280;1736;52.068;6.968;2022-11-14T03:35:48;100995.13;;;2.59;100.00
3444;BME280;1736;52.068;6.968;2022-11-14T03:38:15;100995.88;;;2.63;100.00
3444;BME280;1736;52.068;6.968;2022-11-14T03:40:41;100994.44;;;2.56;100.00
3444;BME280;1736;52.068;6.968;2022-11-14T03:43:08;100989.06;;;2.59;100.00
3444;BME280;1736;52.068;6.968;2022-11-14T03:45:35;100996.13;;;2.57;100.00
3444;BME280;1736;52.068;6.968;2022-11-14T03:48:04;100993.00;;;2.67;100.00
3444;BME280;1736;52.068;6.968;2022-11-14T03:50:31;100994.50;;;2.73;100.00
3444;BME280;1736;52.068;6.968;2022-11-14T03:52:58;101000.81;;;2.69;100.00
3444;BME280;1736;52.068;6.968;2022-11-14T03:55:25;100986.00;;;2.68;100.00
3444;BME280;1736;52.068;6.968;2022-11-14T03:57:51;100980.16;;;2.63;100.00
3444;BME280;1736;52.068;6.968;2022-11-14T04:00:18;100990.63;;;2.63;100.00
3444;BME280;1736;52.068;6.968;2022-11-14T04:02:45;100983.66;;;2.62;100.00
3444;BME280;1736;52.068;6.968;2022-11-14T04:05:13;100986.22;;;2.63;100.00
3444;BME280;1736;52.068;6.968;2022-11-14T04:07:39;100987.50;;;2.55;100.00
3444;BME280;1736;52.068;6.968;2022-11-14T04:10:07;100984.38;;;2.47;100.00
3444;BME280;1736;52.068;6.968;2022-11-14T04:12:34;100987.34;;;2.39;100.00
3444;BME280;1736;52.068;6.968;2022-11-14T04:15:00;100985.00;;;2.33;100.00
3444;BME280;1736;52.068;6.968;2022-11-14T04:17:27;100978.56;;;2.22;100.00
3444;BME280;1736;52.068;6.968;2022-11-14T04:19:53;100978.69;;;2.19;100.00
3444;BME280;1736;52.068;6.968;2022-11-14T04:22:21;100984.84;;;2.18;100.00
3444;BME280;1736;52.068;6.968;2022-11-14T04:24:47;100985.06;;;2.13;100.00
3444;BME280;1736;52.068;6.968;2022-11-14T04:27:14;100974.84;;;2.07;100.00
3444;BME280;1736;52.068;6.968;2022-11-14T04:29:41;100981.03;;;2.25;100.00
3444;BME280;1736;52.068;6.968;2022-11-14T04:32:07;100973.34;;;2.22;100.00
3444;BME280;1736;52.068;6.968;2022-11-14T04:34:34;100972.94;;;2.11;100.00
3444;BME280;1736;52.068;6.968;2022-11-14T04:37:00;100973.88;;;2.10;100.00
3444;BME280;1736;52.068;6.968;2022-11-14T04:39:28;100969.75;;;2.04;100.00
3444;BME280;1736;52.068;6.968;2022-11-14T04:41:55;100965.34;;;2.05;100.00
3444;BME280;1736;52.068;6.968;2022-11-14T04:44:21;100960.13;;;2.05;100.00
3444;BME280;1736;52.068;6.968;2022-11-14T04:46:48;100967.84;;;2.08;100.00
3444;BME280;1736;52.068;6.968;2022-11-14T04:49:14;100957.56;;;2.03;100.00
3444;BME280;1736;52.068;6.968;2022-11-14T04:51:41;100944.28;;;2.08;100.00
3444;BME280;1736;52.068;6.968;2022-11-14T04:54:08;100948.22;;;2.18;100.00
3444;BME280;1736;52.068;6.968;2022-11-14T04:56:36;100934.50;;;2.11;100.00
3444;BME280;1736;52.068;6.968;2022-11-14T04:59:02;100948.34;;;2.15;100.00
3444;BME280;1736;52.068;6.968;2022-11-14T05:01:29;100946.13;;;2.06;100.00
3444;BME280;1736;52.068;6.968;2022-11-14T05:03:55;100943.34;;;2.09;100.00
3444;BME280;1736;52.068;6.968;2022-11-14T05:06:22;100939.84;;;2.10;100.00
3444;BME280;1736;52.068;6.968;2022-11-14T05:08:48;100938.34;;;2.04;100.00
3444;BME280;1736;52.068;6.968;2022-11-14T05:11:16;100931.56;;;2.00;100.00
3444;BME280;1736;52.068;6.968;2022-11-14T05:13:44;100932.72;;;1.93;100.00
3444;BME280;1736;52.068;6.968;2022-11-14T05:16:11;100926.00;;;1.88;100.00
3444;BME280;1736;52.068;6.968;2022-11-14T05:18:38;100924.66;;;1.79;100.00
3444;BME280;1736;52.068;6.968;2022-11-14T05:21:05;100925.56;;;1.78;100.00
3444;BME280;1736;52.068;6.968;2022-11-14T05:23:32;100925.78;;;1.74;100.00
3444;BME280;1736;52.068;6.968;2022-11-14T05:26:00;100924.22;;;1.70;100.00
3444;BME280;1736;52.068;6.968;2022-11-14T05:28:27;100923.53;;;1.65;100.00
3444;BME280;1736;52.068;6.968;2022-11-14T05:31:00;100911.50;;;1.61;100.00
3444;BME280;1736;52.068;6.968;2022-11-14T05:33:28;100912.59;;;1.57;100.00
3444;BME280;1736;52.068;6.968;2022-11-14T05:35:54;100907.53;;;1.52;100.00
3444;BME280;1736;52.068;6.968;2022-11-14T05:38:21;100906.56;;;1.55;100.00
3444;BME280;1736;52.068;6.968;2022-11-14T05:40:47;100917.94;;;1.54;100.00
3444;BME280;1736;52.068;6.968;2022-11-14T05:43:14;100911.78;;;1.55;100.00
3444;BME280;1736;52.068;6.968;2022-11-14T05:45:40;100917.13;;;1.52;100.00
3444;BME280;1736;52.068;6.968;2022-11-14T05:48:08;100905.78;;;1.53;100.00
3444;BME280;1736;52.068;6.968;2022-11-14T05:50:34;100913.47;;;1.56;100.00
3444;BME280;1736;52.068;6.968;2022-11-14T05:56:22;100915.31;;;1.54;100.00
3444;BME280;1736;52.068;6.968;2022-11-14T06:02:45;100910.63;;;1.42;100.00
3444;BME280;1736;52.068;6.968;2022-11-14T06:05:13;100912.19;;;1.46;100.00
3444;BME280;1736;52.068;6.968;2022-11-14T06:07:39;100902.78;;;1.42;100.00
3444;BME280;1736;52.068;6.968;2022-11-14T06:10:06;100904.41;;;1.44;100.00
3444;BME280;1736;52.068;6.968;2022-11-14T06:12:33;100905.38;;;1.42;100.00
3444;BME280;1736;52.068;6.968;2022-11-14T06:14:59;100903.81;;;1.38;100.00
3444;BME280;1736;52.068;6.968;2022-11-14T06:17:26;100903.75;;;1.39;100.00
3444;BME280;1736;52.068;6.968;2022-11-14T06:19:52;100912.59;;;1.37;100.00
3444;BME280;1736;52.068;6.968;2022-11-14T06:22:20;100910.94;;;1.34;100.00
3444;BME280;1736;52.068;6.968;2022-11-14T06:24:46;100911.84;;;1.33;100.00
3444;BME280;1736;52.068;6.968;2022-11-14T06:27:13;100906.16;;;1.44;100.00
3444;BME280;1736;52.068;6.968;2022-11-14T06:29:39;100917.66;;;1.40;100.00
3444;BME280;1736;52.068;6.968;2022-11-14T06:32:06;100911.13;;;1.30;100.00
3444;BME280;1736;52.068;6.968;2022-11-14T06:34:32;100912.84;;;1.31;100.00
3444;BME280;1736;52.068;6.968;2022-11-14T06:36:59;100908.66;;;1.27;100.00
3444;BME280;1736;52.068;6.968;2022-11-14T06:39:27;100904.34;;;1.26;100.00
3444;BME280;1736;52.068;6.968;2022-11-14T06:41:53;100906.63;;;1.33;100.00
3444;BME280;1736;52.068;6.968;2022-11-14T06:44:20;100912.50;;;1.38;100.00
3444;BME280;1736;52.068;6.968;2022-11-14T06:46:46;100901.00;;;1.42;100.00
3444;BME280;1736;52.068;6.968;2022-11-14T06:49:13;100903.81;;;1.38;100.00
3444;BME280;1736;52.068;6.968;2022-11-14T06:51:39;100905.63;;;1.36;100.00
3444;BME280;1736;52.068;6.968;2022-11-14T06:54:06;100904.75;;;1.37;100.00
3444;BME280;1736;52.068;6.968;2022-11-14T06:56:34;100910.75;;;1.39;100.00
3444;BME280;1736;52.068;6.968;2022-11-14T06:59:00;100920.34;;;1.38;100.00
3444;BME280;1736;52.068;6.968;2022-11-14T07:01:27;100913.19;;;1.43;100.00
3444;BME280;1736;52.068;6.968;2022-11-14T07:03:54;100915.84;;;1.42;100.00
3444;BME280;1736;52.068;6.968;2022-11-14T07:06:24;100912.91;;;1.49;100.00
3444;BME280;1736;52.068;6.968;2022-11-14T07:08:52;100918.72;;;1.56;100.00
3444;BME280;1736;52.068;6.968;2022-11-14T07:11:20;100905.72;;;1.73;100.00
3444;BME280;1736;52.068;6.968;2022-11-14T07:13:49;100914.25;;;1.78;100.00
3444;BME280;1736;52.068;6.968;2022-11-14T07:16:16;100908.47;;;1.90;100.00
3444;BME280;1736;52.068;6.968;2022-11-14T07:18:43;100908.06;;;1.99;100.00
3444;BME280;1736;52.068;6.968;2022-11-14T07:21:10;100903.03;;;1.94;100.00
3444;BME280;1736;52.068;6.968;2022-11-14T07:23:38;100899.91;;;2.05;100.00
3444;BME280;1736;52.068;6.968;2022-11-14T07:26:06;100902.34;;;2.09;100.00
3444;BME280;1736;52.068;6.968;2022-11-14T07:28:33;100894.47;;;2.09;100.00
3444;BME280;1736;52.068;6.968;2022-11-14T07:31:03;100887.56;;;2.27;100.00
3444;BME280;1736;52.068;6.968;2022-11-14T07:33:30;100895.03;;;2.34;100.00
3444;BME280;1736;52.068;6.968;2022-11-14T07:35:57;100902.84;;;2.36;100.00
3444;BME280;1736;52.068;6.968;2022-11-14T07:38:23;100887.06;;;2.37;100.00
3444;BME280;1736;52.068;6.968;2022-11-14T07:40:53;100891.38;;;2.38;100.00
3444;BME280;1736;52.068;6.968;2022-11-14T07:43:20;100893.91;;;2.40;100.00
3444;BME280;1736;52.068;6.968;2022-11-14T07:45:47;100896.59;;;2.38;100.00
3444;BME280;1736;52.068;6.968;2022-11-14T07:48:15;100899.84;;;2.43;100.00
3444;BME280;1736;52.068;6.968;2022-11-14T07:50:42;100894.03;;;2.55;100.00
3444;BME280;1736;52.068;6.968;2022-11-14T07:53:09;100880.66;;;2.61;100.00
3444;BME280;1736;52.068;6.968;2022-11-14T07:55:36;100878.13;;;2.77;100.00
3444;BME280;1736;52.068;6.968;2022-11-14T07:58:03;100869.66;;;2.72;100.00
3444;BME280;1736;52.068;6.968;2022-11-14T08:00:30;100879.41;;;2.87;100.00
3444;BME280;1736;52.068;6.968;2022-11-14T08:02:56;100873.31;;;3.03;100.00
3444;BME280;1736;52.068;6.968;2022-11-14T08:05:24;100879.75;;;2.96;100.00
3444;BME280;1736;52.068;6.968;2022-11-14T08:07:51;100886.63;;;2.99;100.00
3444;BME280;1736;52.068;6.968;2022-11-14T08:10:18;100886.66;;;3.16;100.00
3444;BME280;1736;52.068;6.968;2022-11-14T08:12:45;100879.63;;;3.16;100.00
3444;BME280;1736;52.068;6.968;2022-11-14T08:15:12;100883.25;;;3.14;100.00
3444;BME280;1736;52.068;6.968;2022-11-14T08:17:39;100895.13;;;3.21;100.00
3444;BME280;1736;52.068;6.968;2022-11-14T08:20:07;100895.59;;;3.29;100.00
3444;BME280;1736;52.068;6.968;2022-11-14T08:22:35;100883.31;;;3.29;100.00
3444;BME280;1736;52.068;6.968;2022-11-14T08:25:03;100884.25;;;3.45;100.00
3444;BME280;1736;52.068;6.968;2022-11-14T08:27:29;100888.59;;;3.46;100.00
3444;BME280;1736;52.068;6.968;2022-11-14T08:29:56;100900.34;;;3.55;100.00
3444;BME280;1736;52.068;6.968;2022-11-14T08:32:22;100891.56;;;3.56;100.00
3444;BME280;1736;52.068;6.968;2022-11-14T08:34:49;100888.84;;;3.57;100.00
3444;BME280;1736;52.068;6.968;2022-11-14T08:37:15;100882.59;;;3.60;100.00
3444;BME280;1736;52.068;6.968;2022-11-14T08:39:43;100887.38;;;3.69;100.00
3444;BME280;1736;52.068;6.968;2022-11-14T08:42:10;100876.72;;;3.72;100.00
3444;BME280;1736;52.068;6.968;2022-11-14T08:44:36;100876.25;;;3.81;100.00
3444;BME280;1736;52.068;6.968;2022-11-14T08:47:03;100873.72;;;3.95;100.00
3444;BME280;1736;52.068;6.968;2022-11-14T08:49:30;100877.22;;;3.95;100.00
3444;BME280;1736;52.068;6.968;2022-11-14T08:51:56;100863.22;;;3.95;100.00
3444;BME280;1736;52.068;6.968;2022-11-14T08:54:23;100861.09;;;4.01;100.00
3444;BME280;1736;52.068;6.968;2022-11-14T08:56:50;100855.19;;;4.13;100.00
3444;BME280;1736;52.068;6.968;2022-11-14T08:59:17;100852.66;;;4.12;100.00
3444;BME280;1736;52.068;6.968;2022-11-14T09:01:44;100862.47;;;4.24;100.00
3444;BME280;1736;52.068;6.968;2022-11-14T09:04:10;100850.56;;;4.34;100.00
3444;BME280;1736;52.068;6.968;2022-11-14T09:06:37;100859.19;;;4.36;100.00
3444;BME280;1736;52.068;6.968;2022-11-14T09:09:03;100852.66;;;4.43;100.00
3444;BME280;1736;52.068;6.968;2022-11-14T09:11:30;100854.94;;;4.49;99.95
3444;BME280;1736;52.068;6.968;2022-11-14T09:13:58;100840.19;;;4.62;98.51
3444;BME280;1736;52.068;6.968;2022-11-14T09:16:25;100844.59;;;4.61;98.33
3444;BME280;1736;52.068;6.968;2022-11-14T09:18:52;100845.94;;;4.68;97.80
3444;BME280;1736;52.068;6.968;2022-11-14T09:21:18;100860.69;;;4.71;97.32
3444;BME280;1736;52.068;6.968;2022-11-14T09:23:45;100850.19;;;4.71;97.07
3444;BME280;1736;52.068;6.968;2022-11-14T09:26:12;100861.09;;;4.79;96.97
3444;BME280;1736;52.068;6.968;2022-11-14T09:28:39;100852.84;;;4.85;96.20
3444;BME280;1736;52.068;6.968;2022-11-14T09:31:09;100856.47;;;4.98;95.96
3444;BME280;1736;52.068;6.968;2022-11-14T09:33:36;100860.09;;;5.11;95.12
3444;BME280;1736;52.068;6.968;2022-11-14T09:36:04;100860.09;;;5.11;95.01
3444;BME280;1736;52.068;6.968;2022-11-14T09:38:32;100855.56;;;5.13;95.56
3444;BME280;1736;52.068;6.968;2022-11-14T09:41:07;100863.88;;;5.21;94.98
3444;BME280;1736;52.068;6.968;2022-11-14T09:43:46;100857.31;;;5.28;94.95
3444;BME280;1736;52.068;6.968;2022-11-14T09:46:21;100866.16;;;5.27;94.78
3444;BME280;1736;52.068;6.968;2022-11-14T09:48:50;100864.66;;;5.37;94.41
3444;BME280;1736;52.068;6.968;2022-11-14T09:51:19;100867.84;;;5.42;94.56
3444;BME280;1736;52.068;6.968;2022-11-14T09:53:50;100863.16;;;5.47;94.53
3444;BME280;1736;52.068;6.968;2022-11-14T09:56:20;100867.13;;;5.54;94.24
3444;BME280;1736;52.068;6.968;2022-11-14T09:58:49;100863.94;;;5.63;93.46
3444;BME280;1736;52.068;6.968;2022-11-14T10:01:26;100844.59;;;5.64;93.19
3444;BME280;1736;52.068;6.968;2022-11-14T10:03:59;100840.22;;;5.63;93.65
3444;BME280;1736;52.068;6.968;2022-11-14T10:06:31;100840.63;;;5.71;93.30
3444;BME280;1736;52.068;6.968;2022-11-14T10:09:11;100835.59;;;5.96;92.17
3444;BME280;1736;52.068;6.968;2022-11-14T10:11:46;100835.41;;;5.85;92.07
3444;BME280;1736;52.068;6.968;2022-11-14T10:14:27;100835.94;;;5.90;92.12
3444;BME280;1736;52.068;6.968;2022-11-14T10:17:10;100819.19;;;5.91;91.76
3444;BME280;1736;52.068;6.968;2022-11-14T10:19:44;100825.22;;;5.93;92.38
3444;BME280;1736;52.068;6.968;2022-11-14T10:22:19;100826.56;;;6.00;91.66
3444;BME280;1736;52.068;6.968;2022-11-14T10:25:02;100821.75;;;6.07;90.66
3444;BME280;1736;52.068;6.968;2022-11-14T10:27:41;100823.47;;;6.20;89.99
3444;BME280;1736;52.068;6.968;2022-11-14T10:30:10;100821.00;;;6.31;89.87
3444;BME280;1736;52.068;6.968;2022-11-14T10:32:51;100817.84;;;6.26;89.39
3444;BME280;1736;52.068;6.968;2022-11-14T10:35:24;100811.34;;;6.32;89.44
3444;BME280;1736;52.068;6.968;2022-11-14T10:38:00;100809.88;;;6.40;89.69
3444;BME280;1736;52.068;6.968;2022-11-14T10:40:32;100806.69;;;6.35;89.18
3444;BME280;1736;52.068;6.968;2022-11-14T10:43:06;100804.22;;;6.46;89.93
3444;BME280;1736;52.068;6.968;2022-11-14T10:45:40;100800.69;;;6.60;88.97
3444;BME280;1736;52.068;6.968;2022-11-14T10:48:12;100794.63;;;6.72;88.29
3444;BME280;1736;52.068;6.968;2022-11-14T10:50:45;100807.91;;;6.70;87.43
3444;BME280;1736;52.068;6.968;2022-11-14T10:53:19;100804.59;;;6.67;87.98
3444;BME280;1736;52.068;6.968;2022-11-14T10:55:52;100803.78;;;6.79;88.22
3444;BME280;1736;52.068;6.968;2022-11-14T10:58:19;100802.66;;;6.83;88.80
3444;BME280;1736;52.068;6.968;2022-11-14T11:00:46;100800.97;;;6.82;88.10
3444;BME280;1736;52.068;6.968;2022-11-14T11:03:14;100801.00;;;6.94;88.03
3444;BME280;1736;52.068;6.968;2022-11-14T11:05:47;100803.31;;;6.86;87.64
3444;BME280;1736;52.068;6.968;2022-11-14T11:08:18;100802.38;;;7.00;88.50
3444;BME280;1736;52.068;6.968;2022-11-14T11:11:03;100804.41;;;7.21;88.11
3444;BME280;1736;52.068;6.968;2022-11-14T11:13:51;100798.31;;;7.21;87.92
3444;BME280;1736;52.068;6.968;2022-11-14T11:16:21;100805.69;;;7.28;88.25
3444;BME280;1736;52.068;6.968;2022-11-14T11:18:50;100801.03;;;7.32;87.41
3444;BME280;1736;52.068;6.968;2022-11-14T11:21:18;100799.16;;;7.34;87.64
3444;BME280;1736;52.068;6.968;2022-11-14T11:23:50;100789.75;;;7.55;86.92
3444;BME280;1736;52.068;6.968;2022-11-14T11:26:23;100788.38;;;7.62;84.41
3444;BME280;1736;52.068;6.968;2022-11-14T11:29:07;100787.47;;;7.86;82.04
3444;BME280;1736;52.068;6.968;2022-11-14T11:31:49;100799.41;;;8.04;79.84
3444;BME280;1736;52.068;6.968;2022-11-14T11:34:22;100795.03;;;8.03;79.24
3444;BME280;1736;52.068;6.968;2022-11-14T11:36:54;100781.72;;;8.05;78.63
3444;BME280;1736;52.068;6.968;2022-11-14T11:39:26;100779.84;;;7.94;78.67
3444;BME280;1736;52.068;6.968;2022-11-14T11:41:54;100777.50;;;8.02;78.83
3444;BME280;1736;52.068;6.968;2022-11-14T11:44:32;100775.09;;;7.99;78.61
3444;BME280;1736;52.068;6.968;2022-11-14T11:47:03;100773.91;;;8.03;78.27
3444;BME280;1736;52.068;6.968;2022-11-14T11:49:39;100763.16;;;7.94;78.41
3444;BME280;1736;52.068;6.968;2022-11-14T11:52:12;100751.75;;;7.93;78.34
3444;BME280;1736;52.068;6.968;2022-11-14T11:54:48;100755.25;;;7.81;79.58
3444;BME280;1736;52.068;6.968;2022-11-14T11:57:17;100757.34;;;7.89;79.92
3444;BME280;1736;52.068;6.968;2022-11-14T11:59:51;100762.88;;;7.86;80.13
3444;BME280;1736;52.068;6.968;2022-11-14T12:02:21;100753.47;;;7.82;80.30
3444;BME280;1736;52.068;6.968;2022-11-14T12:04:50;100747.84;;;7.86;80.51
3444;BME280;1736;52.068;6.968;2022-11-14T12:07:19;100739.03;;;7.98;80.09
3444;BME280;1736;52.068;6.968;2022-11-14T12:09:48;100741.38;;;8.03;79.76
3444;BME280;1736;52.068;6.968;2022-11-14T12:12:21;100723.97;;;8.11;80.12
3444;BME280;1736;52.068;6.968;2022-11-14T12:14:55;100733.69;;;8.23;79.78
3444;BME280;1736;52.068;6.968;2022-11-14T12:20:48;100731.34;;;8.55;79.22
3444;BME280;1736;52.068;6.968;2022-11-14T12:23:30;100718.28;;;8.75;77.79
3444;BME280;1736;52.068;6.968;2022-11-14T12:26:08;100726.22;;;8.75;77.87
3444;BME280;1736;52.068;6.968;2022-11-14T12:28:54;100716.28;;;8.79;78.07
3444;BME280;1736;52.068;6.968;2022-11-14T12:31:24;100715.91;;;8.83;77.92
3444;BME280;1736;52.068;6.968;2022-11-14T12:33:56;100716.53;;;8.98;77.33
3444;BME280;1736;52.068;6.968;2022-11-14T12:36:29;100703.16;;;8.88;77.27
3444;BME280;1736;52.068;6.968;2022-11-14T12:38:57;100688.53;;;9.06;77.00
3444;BME280;1736;52.068;6.968;2022-11-14T12:41:26;100680.34;;;8.98;77.63
3444;BME280;1736;52.068;6.968;2022-11-14T12:44:17;100686.13;;;9.03;77.93
3444;BME280;1736;52.068;6.968;2022-11-14T12:47:16;100678.91;;;9.16;77.08
3444;BME280;1736;52.068;6.968;2022-11-14T12:50:29;100664.47;;;8.98;77.92
3444;BME280;1736;52.068;6.968;2022-11-14T12:53:00;100674.16;;;8.76;78.71
3444;BME280;1736;52.068;6.968;2022-11-14T12:56:03;100672.34;;;8.65;79.83
3444;BME280;1736;52.068;6.968;2022-11-14T12:59:10;100682.28;;;8.62;80.28
3444;BME280;1736;52.068;6.968;2022-11-14T13:01:47;100674.50;;;8.60;80.65
3444;BME280;1736;52.068;6.968;2022-11-14T13:04:30;100657.41;;;8.53;81.23
3444;BME280;1736;52.068;6.968;2022-11-14T13:07:20;100670.13;;;8.59;80.86
3444;BME280;1736;52.068;6.968;2022-11-14T13:10:00;100674.44;;;8.49;81.73
3444;BME280;1736;52.068;6.968;2022-11-14T13:12:30;100681.25;;;8.64;81.24
3444;BME280;1736;52.068;6.968;2022-11-14T13:15:36;100680.53;;;8.73;80.76
3444;BME280;1736;52.068;6.968;2022-11-14T13:18:29;100681.72;;;8.80;80.28
3444;BME280;1736;52.068;6.968;2022-11-14T13:21:19;100681.41;;;8.96;79.81
3444;BME280;1736;52.068;6.968;2022-11-14T13:24:05;100675.63;;;9.02;79.56
3444;BME280;1736;52.068;6.968;2022-11-14T13:26:52;100676.28;;;9.05;79.34
3444;BME280;1736;52.068;6.968;2022-11-14T13:29:47;100670.97;;;9.05;78.99
3444;BME280;1736;52.068;6.968;2022-11-14T13:35:15;100666.16;;;9.10;78.71
3444;BME280;1736;52.068;6.968;2022-11-14T13:37:55;100661.69;;;9.00;79.47
3444;BME280;1736;52.068;6.968;2022-11-14T13:40:27;100662.78;;;8.97;79.78
3444;BME280;1736;52.068;6.968;2022-11-14T13:43:01;100654.31;;;8.92;79.94